createdAt,value
2019-03-06T00:01:27.229Z,21.00
2019-03-06T00:03:58.030Z,16.80
2019-03-06T00:06:28.853Z,15.00
2019-03-06T00:08:59.698Z,17.00
2019-03-06T00:11:30.513Z,17.80
2019-03-06T00:14:01.256Z,15.60
2019-03-06T00:16:32.148Z,15.80
2019-03-06T00:19:02.811Z,24.00
2019-03-06T00:21:33.756Z,24.60
2019-03-06T00:24:04.605Z,18.20
2019-03-06T00:26:35.439Z,17.50
2019-03-06T00:29:06.173Z,15.20
2019-03-06T00:31:37.458Z,16.00
2019-03-06T00:34:08.139Z,24.00
2019-03-06T00:36:39.901Z,18.20
2019-03-06T00:39:10.782Z,15.00
2019-03-06T00:41:47.085Z,21.00
2019-03-06T00:44:17.852Z,16.00
2019-03-06T00:46:48.578Z,20.40
2019-03-06T00:49:19.518Z,21.80
2019-03-06T00:51:50.314Z,20.40
2019-03-06T00:54:21.196Z,19.00
2019-03-06T00:56:52.096Z,20.60
2019-03-06T00:59:23.781Z,19.20
2019-03-06T01:01:54.719Z,26.75
2019-03-06T01:04:25.471Z,17.80
2019-03-06T01:06:56.375Z,20.00
2019-03-06T01:09:27.334Z,20.40
2019-03-06T01:11:58.243Z,28.80
2019-03-06T01:14:29.339Z,20.40
2019-03-06T01:17:00.130Z,19.40
2019-03-06T01:19:30.770Z,25.60
2019-03-06T01:22:01.539Z,25.60
2019-03-06T01:24:32.342Z,21.00
2019-03-06T01:27:03.454Z,25.75
2019-03-06T01:29:34.214Z,24.25
2019-03-06T01:32:05.006Z,20.00
2019-03-06T01:34:57.773Z,19.60
2019-03-06T01:37:36.907Z,25.00
2019-03-06T01:40:42.143Z,22.80
2019-03-06T01:43:19.854Z,17.00
2019-03-06T01:45:50.677Z,24.40
2019-03-06T01:48:21.586Z,21.50
2019-03-06T01:50:52.374Z,25.60
2019-03-06T01:53:23.190Z,21.00
2019-03-06T01:55:53.924Z,28.60
2019-03-06T01:58:25.066Z,17.00
2019-03-06T02:00:55.856Z,20.40
2019-03-06T02:03:26.821Z,24.00
2019-03-06T02:05:57.796Z,23.60
2019-03-06T02:08:28.604Z,23.00
2019-03-06T02:10:59.350Z,22.00
2019-03-06T02:13:30.241Z,21.00
2019-03-06T02:16:01.043Z,26.00
2019-03-06T02:18:31.923Z,22.20
2019-03-06T02:21:02.928Z,16.60
2019-03-06T02:23:33.807Z,18.00
2019-03-06T02:26:04.460Z,23.00
2019-03-06T02:28:35.385Z,22.20
2019-03-06T02:31:06.150Z,29.80
2019-03-06T02:33:36.977Z,20.60
2019-03-06T02:36:07.751Z,22.60
2019-03-06T02:38:38.547Z,24.00
2019-03-06T02:41:09.292Z,24.50
2019-03-06T02:43:40.570Z,29.60
2019-03-06T02:46:11.326Z,26.20
2019-03-06T02:48:42.193Z,28.40
2019-03-06T02:51:12.936Z,25.00
2019-03-06T02:53:43.762Z,25.00
2019-03-06T02:56:14.613Z,25.00
2019-03-06T02:58:54.157Z,26.00
2019-03-06T03:01:35.382Z,23.50
2019-03-06T03:04:27.948Z,28.00
2019-03-06T03:07:01.717Z,24.50
2019-03-06T03:09:32.593Z,25.20
2019-03-06T03:12:03.245Z,31.20
2019-03-06T03:14:34.166Z,34.00
2019-03-06T03:17:04.916Z,29.00
2019-03-06T03:19:35.696Z,30.00
2019-03-06T03:22:06.710Z,32.50
2019-03-06T03:24:37.599Z,27.00
2019-03-06T03:27:08.369Z,31.80
2019-03-06T03:29:39.138Z,31.00
2019-03-06T03:32:09.965Z,33.20
2019-03-06T03:34:40.829Z,30.00
2019-03-06T03:37:11.512Z,28.60
2019-03-06T03:39:42.309Z,30.60
2019-03-06T03:42:13.103Z,33.40
2019-03-06T03:44:44.080Z,29.00
2019-03-06T03:47:14.833Z,30.40
2019-03-06T03:49:45.653Z,36.00
2019-03-06T03:52:16.394Z,34.00
2019-03-06T03:54:48.004Z,31.00
2019-03-06T03:57:18.712Z,28.60
2019-03-06T03:59:49.676Z,29.00
2019-03-06T04:02:20.362Z,29.00
2019-03-06T04:04:51.890Z,27.00
2019-03-06T04:07:22.637Z,29.00
2019-03-06T04:09:53.457Z,37.60
2019-03-06T04:12:24.321Z,30.25
2019-03-06T04:14:55.243Z,33.00
2019-03-06T04:17:26.097Z,36.25
2019-03-06T04:19:57.170Z,29.00
2019-03-06T04:22:27.874Z,30.20
2019-03-06T04:24:58.652Z,27.00
2019-03-06T04:27:29.342Z,31.25
2019-03-06T04:29:59.997Z,27.40
2019-03-06T04:32:30.684Z,28.00
2019-03-06T04:35:01.467Z,32.60
2019-03-06T04:37:33.186Z,32.20
2019-03-06T04:40:03.897Z,27.40
2019-03-06T04:42:34.774Z,30.50
2019-03-06T04:45:05.714Z,25.60
2019-03-06T04:47:36.501Z,29.50
2019-03-06T04:50:08.122Z,31.60
2019-03-06T04:52:38.859Z,28.00
2019-03-06T04:55:09.602Z,28.25
2019-03-06T04:57:40.268Z,28.40
2019-03-06T05:00:12.083Z,36.60
2019-03-06T05:02:43.012Z,29.00
2019-03-06T05:05:13.735Z,33.00
2019-03-06T05:07:44.592Z,38.00
2019-03-06T05:10:15.742Z,32.20
2019-03-06T05:12:46.451Z,32.60
2019-03-06T05:15:17.300Z,28.60
2019-03-06T05:17:53.182Z,26.00
2019-03-06T05:20:23.986Z,24.00
2019-03-06T05:22:54.799Z,22.60
2019-03-06T05:25:25.540Z,34.60
2019-03-06T05:27:56.261Z,28.00
2019-03-06T05:30:28.168Z,26.00
2019-03-06T05:32:59.706Z,26.50
2019-03-06T05:35:58.316Z,31.20
2019-03-06T05:38:53.421Z,35.40
2019-03-06T05:41:24.328Z,38.75
2019-03-06T05:43:55.122Z,35.40
2019-03-06T05:46:25.884Z,32.00
2019-03-06T05:48:56.572Z,30.00
2019-03-06T05:51:27.597Z,38.20
2019-03-06T05:53:58.491Z,29.60
2019-03-06T05:56:29.239Z,37.60
2019-03-06T05:58:59.963Z,39.50
2019-03-06T06:01:30.703Z,36.80
2019-03-06T06:04:01.392Z,36.60
2019-03-06T06:06:32.277Z,31.00
2019-03-06T06:09:04.779Z,32.00
2019-03-06T06:11:36.811Z,36.00
2019-03-06T06:14:07.687Z,33.80
2019-03-06T06:16:38.480Z,39.00
2019-03-06T06:19:09.152Z,35.00
2019-03-06T06:21:58.001Z,33.50
2019-03-06T06:24:30.473Z,33.40
2019-03-06T06:27:01.378Z,35.50
2019-03-06T06:29:32.103Z,41.50
2019-03-06T06:32:03.155Z,40.40
2019-03-06T06:34:33.884Z,36.20
2019-03-06T06:37:04.624Z,33.00
2019-03-06T06:39:35.522Z,36.00
2019-03-06T06:42:06.303Z,33.00
2019-03-06T06:44:37.008Z,37.00
2019-03-06T06:47:07.786Z,32.67
2019-03-06T06:49:38.552Z,36.00
2019-03-06T06:52:45.400Z,37.50
2019-03-06T06:55:47.373Z,40.50
2019-03-06T06:58:46.360Z,36.60
2019-03-06T07:01:59.590Z,38.00
2019-03-06T07:05:31.456Z,39.40
2019-03-06T07:08:20.031Z,41.00
2019-03-06T07:11:19.309Z,34.75
2019-03-06T07:14:12.028Z,35.75
2019-03-06T07:17:00.609Z,37.00
2019-03-06T07:19:50.388Z,31.40
2019-03-06T07:22:39.963Z,39.75
2019-03-06T07:25:32.815Z,36.50
2019-03-06T07:28:35.190Z,34.00
2019-03-06T07:31:25.506Z,31.00
2019-03-06T07:34:16.488Z,29.00
2019-03-06T07:37:00.739Z,38.00
2019-03-06T07:39:54.002Z,27.40
2019-03-06T07:42:43.780Z,30.40
2019-03-06T07:45:59.875Z,36.20
2019-03-06T07:48:38.083Z,31.00
2019-03-06T07:51:18.792Z,31.00
2019-03-06T07:54:04.128Z,27.00
2019-03-06T07:56:38.179Z,29.80
2019-03-06T07:59:09.022Z,25.60
2019-03-06T08:01:52.097Z,35.50
2019-03-06T08:04:22.907Z,27.60
2019-03-06T08:06:57.070Z,30.40
2019-03-06T08:09:27.865Z,34.80
2019-03-06T08:12:17.452Z,31.20
2019-03-06T08:15:10.325Z,26.40
2019-03-06T08:17:58.958Z,29.00
2019-03-06T08:20:54.778Z,30.50
2019-03-06T08:23:44.558Z,31.00
2019-03-06T08:26:15.642Z,27.60
2019-03-06T08:28:46.495Z,24.00
2019-03-06T08:31:36.417Z,22.60
2019-03-06T08:34:07.106Z,22.00
2019-03-06T08:36:37.721Z,23.80
2019-03-06T08:39:19.793Z,27.60
2019-03-06T08:41:50.577Z,24.00
2019-03-06T08:44:21.325Z,23.00
2019-03-06T08:48:02.432Z,26.00
2019-03-06T08:50:55.181Z,25.00
2019-03-06T08:53:34.002Z,26.00
2019-03-06T08:56:23.785Z,25.25
2019-03-06T08:59:10.183Z,22.40
2019-03-06T09:02:15.069Z,26.75
2019-03-06T09:04:55.579Z,26.25
2019-03-06T09:07:40.647Z,23.00
2019-03-06T09:10:29.922Z,27.80
2019-03-06T09:13:29.013Z,20.75
2019-03-06T09:16:25.041Z,21.00
2019-03-06T09:19:20.656Z,19.00
2019-03-06T09:22:13.920Z,20.50
2019-03-06T09:25:12.506Z,24.00
2019-03-06T09:28:02.386Z,19.75
2019-03-06T09:30:38.648Z,20.00
2019-03-06T09:33:28.019Z,22.00
2019-03-06T09:36:17.656Z,19.60
2019-03-06T09:39:08.294Z,22.60
2019-03-06T09:42:04.423Z,17.40
2019-03-06T09:44:59.221Z,21.00
2019-03-06T09:47:34.950Z,26.00
2019-03-06T09:50:19.221Z,18.50
2019-03-06T09:53:08.080Z,26.00
2019-03-06T09:55:49.871Z,22.00
2019-03-06T09:58:45.591Z,22.00
2019-03-06T10:01:34.963Z,22.00
2019-03-06T10:04:20.851Z,24.40
2019-03-06T10:07:19.846Z,22.00
2019-03-06T10:10:15.874Z,23.40
2019-03-06T10:13:17.736Z,29.00
2019-03-06T10:16:10.279Z,23.00
2019-03-06T10:19:00.058Z,22.40
2019-03-06T10:21:30.864Z,23.75
2019-03-06T10:24:01.657Z,30.25
2019-03-06T10:26:32.664Z,23.00
2019-03-06T10:29:03.221Z,27.00
2019-03-06T10:31:34.095Z,24.20
2019-03-06T10:34:04.783Z,22.00
2019-03-06T10:36:35.601Z,23.40
2019-03-06T10:39:07.284Z,21.40
2019-03-06T10:41:39.807Z,21.75
2019-03-06T10:44:10.500Z,23.00
2019-03-06T10:46:41.225Z,20.60
2019-03-06T10:49:12.072Z,18.40
2019-03-06T10:51:42.796Z,19.20
2019-03-06T10:54:13.776Z,19.25
2019-03-06T10:56:44.563Z,18.20
2019-03-06T10:59:15.478Z,16.80
2019-03-06T11:01:46.411Z,14.40
2019-03-06T11:04:40.207Z,20.00
2019-03-06T11:07:12.251Z,18.00
2019-03-06T11:09:43.154Z,18.60
2019-03-06T11:12:14.003Z,18.00
2019-03-06T11:14:44.923Z,19.40
2019-03-06T11:17:16.895Z,14.25
2019-03-06T11:19:48.030Z,21.00
2019-03-06T11:22:18.915Z,14.40
2019-03-06T11:24:49.685Z,22.40
2019-03-06T11:27:20.364Z,16.50
2019-03-06T11:29:51.131Z,19.00
2019-03-06T11:32:21.915Z,18.20
2019-03-06T11:34:52.693Z,16.00
2019-03-06T11:37:23.507Z,15.80
2019-03-06T11:39:54.353Z,14.00
2019-03-06T11:42:25.146Z,12.00
2019-03-06T11:44:56.050Z,16.50
2019-03-06T11:47:26.851Z,18.20
2019-03-06T11:49:57.626Z,16.60
2019-03-06T11:52:28.403Z,17.80
2019-03-06T11:55:05.905Z,15.25
2019-03-06T11:57:33.356Z,16.00
2019-03-06T12:00:07.586Z,19.00
2019-03-06T12:02:38.421Z,19.00
2019-03-06T12:05:09.317Z,19.00
2019-03-06T12:07:40.181Z,15.00
2019-03-06T12:10:11.054Z,17.00
2019-03-06T12:12:42.061Z,22.00
2019-03-06T12:15:12.942Z,12.60
2019-03-06T12:17:43.840Z,12.60
2019-03-06T12:20:14.613Z,13.40
2019-03-06T12:22:45.464Z,15.00
2019-03-06T12:25:17.338Z,11.50
2019-03-06T12:27:48.130Z,14.60
2019-03-06T12:30:18.912Z,14.40
2019-03-06T12:32:49.705Z,13.60
2019-03-06T12:35:20.484Z,11.00
2019-03-06T12:37:51.392Z,12.00
2019-03-06T12:40:22.659Z,12.40
2019-03-06T12:42:53.355Z,11.00
2019-03-06T12:45:24.139Z,12.00
2019-03-06T12:47:55.779Z,13.00
2019-03-06T12:50:27.026Z,15.00
2019-03-06T12:52:57.848Z,12.00
2019-03-06T12:55:28.831Z,14.00
2019-03-06T12:57:59.792Z,15.00
2019-03-06T13:00:30.593Z,14.00
2019-03-06T13:03:01.496Z,15.00
2019-03-06T13:05:32.364Z,16.00
2019-03-06T13:08:03.074Z,15.00
2019-03-06T13:10:34.020Z,14.00
2019-03-06T13:13:04.715Z,16.00
2019-03-06T13:15:35.905Z,13.80
2019-03-06T13:18:06.619Z,15.40
2019-03-06T13:20:37.479Z,13.00
2019-03-06T13:23:09.050Z,13.00
2019-03-06T13:25:39.955Z,14.00
2019-03-06T13:28:10.839Z,10.80
2019-03-06T13:30:41.646Z,10.60
2019-03-06T13:33:20.455Z,10.00
2019-03-06T13:35:51.188Z,10.00
2019-03-06T13:38:21.877Z,12.00
2019-03-06T13:40:52.660Z,10.00
2019-03-06T13:43:23.635Z,8.00
2019-03-06T13:45:54.501Z,13.00
2019-03-06T13:48:25.354Z,9.60
2019-03-06T13:50:56.230Z,9.60
2019-03-06T13:53:27.093Z,9.20
2019-03-06T13:56:12.386Z,9.00
2019-03-06T13:58:43.378Z,8.00
2019-03-06T14:01:14.335Z,9.00
2019-03-06T14:03:45.487Z,10.00
2019-03-06T14:06:16.165Z,8.20
2019-03-06T14:08:46.949Z,9.80
2019-03-06T14:11:17.870Z,10.60
2019-03-06T14:13:48.889Z,9.75
2019-03-06T14:16:20.048Z,8.00
2019-03-06T14:18:51.015Z,10.50
2019-03-06T14:21:21.903Z,11.00
2019-03-06T14:23:52.687Z,11.00
2019-03-06T14:26:23.568Z,10.00
2019-03-06T14:28:54.837Z,9.00
2019-03-06T14:31:26.047Z,9.40
2019-03-06T14:33:56.963Z,11.00
2019-03-06T14:36:27.831Z,13.00
2019-03-06T14:38:58.521Z,11.00
2019-03-06T14:41:29.431Z,12.00
2019-03-06T14:44:00.201Z,9.00
2019-03-06T14:46:30.974Z,9.50
2019-03-06T14:49:01.863Z,10.00
2019-03-06T14:51:32.640Z,10.00
2019-03-06T14:54:03.367Z,9.40
2019-03-06T14:56:34.123Z,8.00
2019-03-06T14:59:04.939Z,9.00
2019-03-06T15:01:35.679Z,9.40
2019-03-06T15:04:06.573Z,8.00
2019-03-06T15:06:38.438Z,7.60
2019-03-06T15:09:20.816Z,6.75
2019-03-06T15:11:51.779Z,6.00
2019-03-06T15:14:22.939Z,6.00
2019-03-06T15:16:53.855Z,6.00
2019-03-06T15:19:25.066Z,8.00
2019-03-06T15:21:56.958Z,5.50
2019-03-06T15:24:27.782Z,6.00
2019-03-06T15:26:58.755Z,6.00
2019-03-06T15:29:29.473Z,6.40
2019-03-06T15:32:00.614Z,4.00
2019-03-06T15:34:31.498Z,7.20
2019-03-06T15:37:02.401Z,6.20
2019-03-06T15:39:42.612Z,5.80
2019-03-06T15:42:14.523Z,5.00
2019-03-06T15:44:45.564Z,5.00
2019-03-06T15:47:17.736Z,6.00
2019-03-06T15:49:48.486Z,4.80
2019-03-06T15:52:19.290Z,6.00
2019-03-06T15:54:50.365Z,8.00
2019-03-06T15:57:21.470Z,5.00
2019-03-06T15:59:52.465Z,5.00
2019-03-06T16:02:23.562Z,5.00
2019-03-06T16:04:54.457Z,5.50
2019-03-06T16:07:25.648Z,7.00
2019-03-06T16:09:56.274Z,7.00
2019-03-06T16:12:27.198Z,6.00
2019-03-06T16:14:59.125Z,5.00
2019-03-06T16:17:30.223Z,5.60
2019-03-06T16:20:01.310Z,6.00
2019-03-06T16:22:32.285Z,4.00
2019-03-06T16:25:03.222Z,5.40
2019-03-06T16:27:34.030Z,16.00
2019-03-06T16:30:04.946Z,8.00
2019-03-06T16:32:36.049Z,7.20
2019-03-06T16:35:07.042Z,6.20
2019-03-06T16:37:37.891Z,10.20
2019-03-06T16:40:12.398Z,11.25
2019-03-06T16:42:43.325Z,21.60
2019-03-06T16:45:14.307Z,13.00
2019-03-06T16:47:45.288Z,7.50
2019-03-06T16:50:16.586Z,13.20
2019-03-06T16:52:47.367Z,10.00
2019-03-06T16:55:18.162Z,15.00
2019-03-06T16:57:49.847Z,15.00
2019-03-06T17:00:28.119Z,15.00
2019-03-06T17:02:59.007Z,15.00
2019-03-06T17:05:29.987Z,12.20
2019-03-06T17:08:02.007Z,12.00
2019-03-06T17:10:32.782Z,10.80
2019-03-06T17:13:03.576Z,13.00
2019-03-06T17:15:34.688Z,15.60
2019-03-06T17:18:05.573Z,14.00
2019-03-06T17:20:36.460Z,12.00
2019-03-06T17:23:07.049Z,14.00
2019-03-06T17:25:37.824Z,15.00
2019-03-06T17:28:08.722Z,14.40
2019-03-06T17:30:39.379Z,17.50
2019-03-06T17:33:10.603Z,23.20
2019-03-06T17:35:41.365Z,20.40
2019-03-06T17:38:12.356Z,23.40
2019-03-06T17:40:43.039Z,28.60
2019-03-06T17:43:14.015Z,18.00
2019-03-06T17:45:46.240Z,25.25
2019-03-06T17:48:17.017Z,19.00
2019-03-06T17:50:47.707Z,18.60
2019-03-06T17:53:18.690Z,20.25
2019-03-06T17:55:49.480Z,23.00
2019-03-06T17:58:20.625Z,21.40
2019-03-06T18:00:54.082Z,21.50
2019-03-06T18:03:34.550Z,19.80
2019-03-06T18:06:05.339Z,18.60
2019-03-06T18:08:36.530Z,18.80
2019-03-06T18:11:07.290Z,26.80
2019-03-06T18:13:38.072Z,18.00
2019-03-06T18:16:09.768Z,21.50
2019-03-06T18:18:40.591Z,21.20
2019-03-06T18:21:11.339Z,24.00
2019-03-06T18:23:42.442Z,22.00
2019-03-06T18:26:13.330Z,21.00
2019-03-06T18:28:44.279Z,19.20
2019-03-06T18:31:14.998Z,27.00
2019-03-06T18:33:45.811Z,23.00
2019-03-06T18:36:16.788Z,23.40
2019-03-06T18:38:48.591Z,21.60
2019-03-06T18:41:19.452Z,22.00
2019-03-06T18:43:50.456Z,23.00
2019-03-06T18:46:21.380Z,26.00
2019-03-06T18:48:52.380Z,31.25
2019-03-06T18:51:23.203Z,25.75
2019-03-06T18:53:54.004Z,20.20
2019-03-06T18:56:24.815Z,21.00
2019-03-06T18:58:55.779Z,20.00
2019-03-06T19:01:26.670Z,25.00
2019-03-06T19:03:57.625Z,21.40
2019-03-06T19:06:28.342Z,21.00
2019-03-06T19:08:59.261Z,18.40
2019-03-06T19:11:30.020Z,23.00
2019-03-06T19:14:01.523Z,23.00
2019-03-06T19:16:32.275Z,20.40
2019-03-06T19:19:03.175Z,21.00
2019-03-06T19:21:34.003Z,22.00
2019-03-06T19:24:04.839Z,20.60
2019-03-06T19:26:35.566Z,21.40
2019-03-06T19:29:06.426Z,21.60
2019-03-06T19:31:38.245Z,22.00
2019-03-06T19:34:09.245Z,18.00
2019-03-06T19:36:40.028Z,24.20
2019-03-06T19:39:10.786Z,20.00
2019-03-06T19:41:41.576Z,20.00
2019-03-06T19:44:12.371Z,19.00
2019-03-06T19:46:43.042Z,25.00
2019-03-06T19:49:13.928Z,15.60
2019-03-06T19:51:51.214Z,20.00
2019-03-06T19:54:17.129Z,20.80
2019-03-06T19:56:47.847Z,21.00
2019-03-06T19:59:18.696Z,17.00
2019-03-06T20:01:49.305Z,20.20
2019-03-06T20:04:20.084Z,16.00
2019-03-06T20:06:50.735Z,16.40
2019-03-06T20:09:24.100Z,19.40
2019-03-06T20:11:54.888Z,14.50
2019-03-06T20:14:25.795Z,15.60
2019-03-06T20:16:56.550Z,18.60
2019-03-06T20:19:27.231Z,15.20
2019-03-06T20:21:58.036Z,23.60
2019-03-06T20:24:28.794Z,17.00
2019-03-06T20:26:59.515Z,17.00
2019-03-06T20:29:30.476Z,16.25
2019-03-06T20:32:01.276Z,15.40
2019-03-06T20:34:32.897Z,17.80
2019-03-06T20:37:03.879Z,16.00
2019-03-06T20:39:34.888Z,15.60
2019-03-06T20:42:05.622Z,16.00
2019-03-06T20:44:36.574Z,14.40
2019-03-06T20:47:07.310Z,12.60
2019-03-06T20:49:38.270Z,14.00
2019-03-06T20:52:09.103Z,14.20
2019-03-06T20:54:41.078Z,16.40
2019-03-06T20:57:11.809Z,12.60
2019-03-06T20:59:44.742Z,13.00
2019-03-06T21:02:15.618Z,14.60
2019-03-06T21:04:46.420Z,16.40
2019-03-06T21:07:17.303Z,14.60
2019-03-06T21:09:47.992Z,12.60
2019-03-06T21:12:18.698Z,16.75
2019-03-06T21:14:49.443Z,12.00
2019-03-06T21:17:20.220Z,12.00
2019-03-06T21:19:51.213Z,14.80
2019-03-06T21:22:21.831Z,14.20
2019-03-06T21:24:52.526Z,13.00
2019-03-06T21:27:23.401Z,11.00
2019-03-06T21:29:54.237Z,11.00
2019-03-06T21:32:25.043Z,11.60
2019-03-06T21:34:55.666Z,12.80
2019-03-06T21:37:26.548Z,11.20
2019-03-06T21:39:57.315Z,12.20
2019-03-06T21:42:28.281Z,14.00
2019-03-06T21:44:58.974Z,12.20
2019-03-06T21:47:30.191Z,15.00
2019-03-06T21:50:01.098Z,12.00
2019-03-06T21:52:32.886Z,17.00
2019-03-06T21:55:03.802Z,12.20
2019-03-06T21:57:34.452Z,12.20
2019-03-06T22:00:06.567Z,12.50
2019-03-06T22:02:37.966Z,12.60
2019-03-06T22:05:08.105Z,11.40
2019-03-06T22:07:39.004Z,10.00
2019-03-06T22:10:09.587Z,13.20
2019-03-06T22:12:40.479Z,11.00
2019-03-06T22:15:12.392Z,13.00
2019-03-06T22:17:44.570Z,8.00
2019-03-06T22:20:15.281Z,14.00
2019-03-06T22:22:46.062Z,12.00
2019-03-06T22:25:17.270Z,11.00
2019-03-06T22:27:48.042Z,11.40
2019-03-06T22:30:19.134Z,12.60
2019-03-06T22:32:49.924Z,15.60
2019-03-06T22:35:20.614Z,12.00
2019-03-06T22:37:51.394Z,12.00
2019-03-06T22:40:22.061Z,11.60
2019-03-06T22:42:52.885Z,12.60
2019-03-06T22:45:23.621Z,13.00
2019-03-06T22:47:54.358Z,14.00
2019-03-06T22:50:25.216Z,12.40
2019-03-06T22:52:57.208Z,12.20
2019-03-06T22:55:28.958Z,12.60
2019-03-06T22:57:59.735Z,12.40
2019-03-06T23:01:00.878Z,11.60
2019-03-06T23:03:32.998Z,12.00
2019-03-06T23:06:04.859Z,13.40
2019-03-06T23:08:35.646Z,12.00
2019-03-06T23:11:06.618Z,13.00
2019-03-06T23:13:37.408Z,10.00
2019-03-06T23:16:08.209Z,11.00
2019-03-06T23:18:39.150Z,10.40
2019-03-06T23:21:10.190Z,13.00
2019-03-06T23:23:41.339Z,12.00
2019-03-06T23:26:12.131Z,11.00
2019-03-06T23:28:42.994Z,14.00
2019-03-06T23:31:13.705Z,11.00
2019-03-06T23:33:44.470Z,15.00
2019-03-06T23:36:15.462Z,11.00
2019-03-06T23:38:46.169Z,10.00
2019-03-06T23:41:16.840Z,11.25
2019-03-06T23:43:47.637Z,10.00
2019-03-06T23:46:18.318Z,13.00
2019-03-06T23:48:49.397Z,12.00
2019-03-06T23:51:27.932Z,11.50
2019-03-06T23:53:58.743Z,13.00
2019-03-06T23:56:29.494Z,9.25
2019-03-06T23:59:01.335Z,15.00
